Terminal Aerodrome Forecast
Issued by NWS Tampa Bay Area, FL

Home | Current Version | Previous Version | Text Only | Print | Product List | Glossary On
Versions: 1 2 3 4 5 6 7 8 9 10 11 12 13
000
FTUS42 KTBW 301700
TAFSRQ
TAF
KSRQ 301740Z 3018/3118 27006KT P6SM VCTS SCT030CB BKN080
     FM302100 29007KT P6SM VCSH SCT035 BKN080
     FM310000 32005KT P6SM SCT040 BKN080
     FM311200 33008KT P6SM FEW040 SCT150=

USA.gov is the U.S. government's official web portal to all federal, state and local government web resources and services.